sensor_id;sensor_type;location;lat;lon;timestamp;P1;durP1;ratioP1;P2;durP2;ratioP2
65831;SDS011;52593;42.648;23.332;2023-04-09T00:00:32;27.33;;;11.97;;
65831;SDS011;52593;42.648;23.332;2023-04-09T00:02:58;30.43;;;13.90;;
65831;SDS011;52593;42.648;23.332;2023-04-09T00:05:23;27.63;;;12.00;;
65831;SDS011;52593;42.648;23.332;2023-04-09T00:07:49;26.45;;;12.90;;
65831;SDS011;52593;42.648;23.332;2023-04-09T00:10:15;27.57;;;13.27;;
65831;SDS011;52593;42.648;23.332;2023-04-09T00:12:40;31.00;;;13.70;;
65831;SDS011;52593;42.648;23.332;2023-04-09T00:15:06;27.83;;;13.20;;
65831;SDS011;52593;42.648;23.332;2023-04-09T00:17:31;24.47;;;12.00;;
65831;SDS011;52593;42.648;23.332;2023-04-09T00:19:57;27.58;;;13.13;;
65831;SDS011;52593;42.648;23.332;2023-04-09T00:22:22;24.50;;;11.80;;
65831;SDS011;52593;42.648;23.332;2023-04-09T00:24:48;24.33;;;12.13;;
65831;SDS011;52593;42.648;23.332;2023-04-09T00:27:13;24.65;;;11.65;;
65831;SDS011;52593;42.648;23.332;2023-04-09T00:29:39;23.23;;;11.00;;
65831;SDS011;52593;42.648;23.332;2023-04-09T00:32:05;22.88;;;10.95;;
65831;SDS011;52593;42.648;23.332;2023-04-09T00:34:30;23.60;;;11.40;;
65831;SDS011;52593;42.648;23.332;2023-04-09T00:36:56;17.10;;;9.63;;
65831;SDS011;52593;42.648;23.332;2023-04-09T00:39:21;17.73;;;8.53;;
65831;SDS011;52593;42.648;23.332;2023-04-09T00:41:47;18.00;;;8.57;;
65831;SDS011;52593;42.648;23.332;2023-04-09T00:44:12;18.40;;;9.07;;
65831;SDS011;52593;42.648;23.332;2023-04-09T00:46:37;17.77;;;8.23;;
65831;SDS011;52593;42.648;23.332;2023-04-09T00:49:04;16.88;;;8.00;;
65831;SDS011;52593;42.648;23.332;2023-04-09T00:51:29;17.40;;;8.40;;
65831;SDS011;52593;42.648;23.332;2023-04-09T00:53:55;17.88;;;8.02;;
65831;SDS011;52593;42.648;23.332;2023-04-09T00:56:21;16.00;;;8.15;;
65831;SDS011;52593;42.648;23.332;2023-04-09T00:58:47;16.07;;;7.73;;
65831;SDS011;52593;42.648;23.332;2023-04-09T01:01:13;18.63;;;8.18;;
65831;SDS011;52593;42.648;23.332;2023-04-09T01:03:38;18.37;;;8.60;;
65831;SDS011;52593;42.648;23.332;2023-04-09T01:06:06;18.58;;;8.50;;
65831;SDS011;52593;42.648;23.332;2023-04-09T01:08:39;17.67;;;8.85;;
65831;SDS011;52593;42.648;23.332;2023-04-09T01:17:04;17.77;;;8.25;;
65831;SDS011;52593;42.648;23.332;2023-04-09T01:19:49;17.85;;;8.52;;
65831;SDS011;52593;42.648;23.332;2023-04-09T01:22:32;18.88;;;9.00;;
65831;SDS011;52593;42.648;23.332;2023-04-09T01:25:25;19.50;;;9.05;;
65831;SDS011;52593;42.648;23.332;2023-04-09T01:30:42;18.60;;;8.60;;
65831;SDS011;52593;42.648;23.332;2023-04-09T01:33:11;16.42;;;7.72;;
65831;SDS011;52593;42.648;23.332;2023-04-09T01:35:39;18.98;;;8.88;;
65831;SDS011;52593;42.648;23.332;2023-04-09T01:38:07;18.13;;;8.75;;
65831;SDS011;52593;42.648;23.332;2023-04-09T01:40:34;20.03;;;9.67;;
65831;SDS011;52593;42.648;23.332;2023-04-09T01:43:00;18.58;;;8.93;;
65831;SDS011;52593;42.648;23.332;2023-04-09T01:45:27;22.65;;;9.95;;
65831;SDS011;52593;42.648;23.332;2023-04-09T01:47:52;19.33;;;9.70;;
65831;SDS011;52593;42.648;23.332;2023-04-09T01:50:20;20.20;;;9.65;;
65831;SDS011;52593;42.648;23.332;2023-04-09T01:52:46;21.13;;;8.98;;
65831;SDS011;52593;42.648;23.332;2023-04-09T01:55:12;19.63;;;9.63;;
65831;SDS011;52593;42.648;23.332;2023-04-09T01:57:38;19.75;;;9.35;;
65831;SDS011;52593;42.648;23.332;2023-04-09T02:00:04;18.17;;;8.43;;
65831;SDS011;52593;42.648;23.332;2023-04-09T02:02:34;18.17;;;8.43;;
65831;SDS011;52593;42.648;23.332;2023-04-09T02:05:05;18.37;;;8.60;;
65831;SDS011;52593;42.648;23.332;2023-04-09T02:07:43;18.25;;;9.13;;
65831;SDS011;52593;42.648;23.332;2023-04-09T02:10:12;19.13;;;9.70;;
65831;SDS011;52593;42.648;23.332;2023-04-09T02:12:39;22.52;;;10.15;;
65831;SDS011;52593;42.648;23.332;2023-04-09T02:15:09;20.25;;;9.85;;
65831;SDS011;52593;42.648;23.332;2023-04-09T02:17:36;20.43;;;9.90;;
65831;SDS011;52593;42.648;23.332;2023-04-09T02:20:02;21.67;;;10.20;;
65831;SDS011;52593;42.648;23.332;2023-04-09T02:22:28;21.80;;;10.53;;
65831;SDS011;52593;42.648;23.332;2023-04-09T02:24:54;22.60;;;10.50;;
65831;SDS011;52593;42.648;23.332;2023-04-09T02:27:19;20.98;;;10.15;;
65831;SDS011;52593;42.648;23.332;2023-04-09T02:29:45;23.43;;;10.43;;
65831;SDS011;52593;42.648;23.332;2023-04-09T02:32:10;21.00;;;9.97;;
65831;SDS011;52593;42.648;23.332;2023-04-09T02:34:36;21.50;;;10.50;;
65831;SDS011;52593;42.648;23.332;2023-04-09T02:37:01;22.67;;;10.63;;
65831;SDS011;52593;42.648;23.332;2023-04-09T02:39:26;22.97;;;10.90;;
65831;SDS011;52593;42.648;23.332;2023-04-09T02:41:52;21.23;;;10.23;;
65831;SDS011;52593;42.648;23.332;2023-04-09T02:44:17;24.50;;;10.40;;
65831;SDS011;52593;42.648;23.332;2023-04-09T02:46:43;22.13;;;10.43;;
65831;SDS011;52593;42.648;23.332;2023-04-09T02:49:08;20.88;;;9.40;;
65831;SDS011;52593;42.648;23.332;2023-04-09T02:51:34;21.43;;;9.40;;
65831;SDS011;52593;42.648;23.332;2023-04-09T02:54:00;20.40;;;9.63;;
65831;SDS011;52593;42.648;23.332;2023-04-09T02:56:25;20.20;;;9.97;;
65831;SDS011;52593;42.648;23.332;2023-04-09T02:58:51;20.40;;;9.75;;
65831;SDS011;52593;42.648;23.332;2023-04-09T03:01:18;21.07;;;9.83;;
65831;SDS011;52593;42.648;23.332;2023-04-09T03:03:44;21.67;;;10.07;;
65831;SDS011;52593;42.648;23.332;2023-04-09T03:06:10;20.27;;;10.23;;
65831;SDS011;52593;42.648;23.332;2023-04-09T03:08:35;21.37;;;9.27;;
65831;SDS011;52593;42.648;23.332;2023-04-09T03:11:00;18.83;;;8.90;;
65831;SDS011;52593;42.648;23.332;2023-04-09T03:13:26;19.77;;;8.53;;
65831;SDS011;52593;42.648;23.332;2023-04-09T03:15:52;19.13;;;9.17;;
65831;SDS011;52593;42.648;23.332;2023-04-09T03:18:17;21.30;;;9.80;;
65831;SDS011;52593;42.648;23.332;2023-04-09T03:20:43;20.13;;;9.53;;
65831;SDS011;52593;42.648;23.332;2023-04-09T03:23:09;20.15;;;9.75;;
65831;SDS011;52593;42.648;23.332;2023-04-09T03:25:35;20.70;;;9.38;;
65831;SDS011;52593;42.648;23.332;2023-04-09T03:28:00;20.30;;;8.83;;
65831;SDS011;52593;42.648;23.332;2023-04-09T03:30:27;20.40;;;9.32;;
65831;SDS011;52593;42.648;23.332;2023-04-09T03:32:52;21.27;;;10.27;;
65831;SDS011;52593;42.648;23.332;2023-04-09T03:35:17;19.73;;;9.37;;
65831;SDS011;52593;42.648;23.332;2023-04-09T03:37:43;20.27;;;9.30;;
65831;SDS011;52593;42.648;23.332;2023-04-09T03:40:08;19.83;;;9.60;;
65831;SDS011;52593;42.648;23.332;2023-04-09T03:42:34;22.65;;;9.20;;
65831;SDS011;52593;42.648;23.332;2023-04-09T03:45:01;19.40;;;9.02;;
65831;SDS011;52593;42.648;23.332;2023-04-09T03:47:27;19.55;;;9.60;;
65831;SDS011;52593;42.648;23.332;2023-04-09T03:49:53;20.23;;;9.70;;
65831;SDS011;52593;42.648;23.332;2023-04-09T03:52:18;23.53;;;10.70;;
65831;SDS011;52593;42.648;23.332;2023-04-09T03:54:43;21.60;;;10.27;;
65831;SDS011;52593;42.648;23.332;2023-04-09T03:57:09;22.10;;;10.10;;
65831;SDS011;52593;42.648;23.332;2023-04-09T03:59:34;21.60;;;10.02;;
65831;SDS011;52593;42.648;23.332;2023-04-09T04:02:00;25.73;;;10.63;;
65831;SDS011;52593;42.648;23.332;2023-04-09T04:04:25;25.23;;;10.97;;
65831;SDS011;52593;42.648;23.332;2023-04-09T04:06:51;25.13;;;10.48;;
65831;SDS011;52593;42.648;23.332;2023-04-09T04:09:16;24.30;;;11.03;;
65831;SDS011;52593;42.648;23.332;2023-04-09T04:11:41;26.67;;;11.27;;
65831;SDS011;52593;42.648;23.332;2023-04-09T04:14:07;26.07;;;11.03;;
65831;SDS011;52593;42.648;23.332;2023-04-09T04:16:32;25.40;;;10.83;;
65831;SDS011;52593;42.648;23.332;2023-04-09T04:18:58;24.97;;;10.47;;
65831;SDS011;52593;42.648;23.332;2023-04-09T04:21:23;26.60;;;11.33;;
65831;SDS011;52593;42.648;23.332;2023-04-09T04:23:48;22.70;;;10.07;;
65831;SDS011;52593;42.648;23.332;2023-04-09T04:26:14;23.83;;;10.60;;
65831;SDS011;52593;42.648;23.332;2023-04-09T04:28:39;24.87;;;10.70;;
65831;SDS011;52593;42.648;23.332;2023-04-09T04:31:08;26.55;;;11.32;;
65831;SDS011;52593;42.648;23.332;2023-04-09T04:33:34;21.25;;;9.95;;
65831;SDS011;52593;42.648;23.332;2023-04-09T04:36:11;23.53;;;10.67;;
65831;SDS011;52593;42.648;23.332;2023-04-09T04:38:38;24.27;;;10.70;;
65831;SDS011;52593;42.648;23.332;2023-04-09T04:41:05;23.63;;;10.23;;
65831;SDS011;52593;42.648;23.332;2023-04-09T04:43:30;22.97;;;10.73;;
65831;SDS011;52593;42.648;23.332;2023-04-09T04:45:56;26.02;;;11.30;;
65831;SDS011;52593;42.648;23.332;2023-04-09T04:48:22;26.33;;;11.10;;
65831;SDS011;52593;42.648;23.332;2023-04-09T04:50:53;26.02;;;11.45;;
65831;SDS011;52593;42.648;23.332;2023-04-09T04:53:22;25.00;;;11.02;;
65831;SDS011;52593;42.648;23.332;2023-04-09T04:55:48;30.03;;;12.00;;
65831;SDS011;52593;42.648;23.332;2023-04-09T04:58:13;27.33;;;11.57;;
65831;SDS011;52593;42.648;23.332;2023-04-09T05:00:38;27.83;;;11.93;;
65831;SDS011;52593;42.648;23.332;2023-04-09T05:03:04;30.27;;;12.43;;
65831;SDS011;52593;42.648;23.332;2023-04-09T05:05:29;30.73;;;12.90;;
65831;SDS011;52593;42.648;23.332;2023-04-09T05:07:55;27.85;;;11.30;;
65831;SDS011;52593;42.648;23.332;2023-04-09T05:10:21;28.43;;;11.30;;
65831;SDS011;52593;42.648;23.332;2023-04-09T05:12:46;30.30;;;11.43;;
65831;SDS011;52593;42.648;23.332;2023-04-09T05:15:11;26.43;;;11.07;;
65831;SDS011;52593;42.648;23.332;2023-04-09T05:17:37;29.10;;;11.63;;
65831;SDS011;52593;42.648;23.332;2023-04-09T05:20:02;27.70;;;11.17;;
65831;SDS011;52593;42.648;23.332;2023-04-09T05:22:28;26.70;;;10.20;;
65831;SDS011;52593;42.648;23.332;2023-04-09T05:24:53;29.33;;;11.70;;
65831;SDS011;52593;42.648;23.332;2023-04-09T05:27:18;24.35;;;10.30;;
65831;SDS011;52593;42.648;23.332;2023-04-09T05:29:46;26.03;;;11.13;;
65831;SDS011;52593;42.648;23.332;2023-04-09T05:32:11;28.02;;;10.93;;
65831;SDS011;52593;42.648;23.332;2023-04-09T05:34:36;25.50;;;9.57;;
65831;SDS011;52593;42.648;23.332;2023-04-09T05:37:02;26.93;;;11.00;;
65831;SDS011;52593;42.648;23.332;2023-04-09T05:39:27;26.13;;;10.37;;
65831;SDS011;52593;42.648;23.332;2023-04-09T05:41:52;26.20;;;10.83;;
65831;SDS011;52593;42.648;23.332;2023-04-09T05:44:18;26.65;;;11.15;;
65831;SDS011;52593;42.648;23.332;2023-04-09T05:46:44;29.43;;;11.07;;
65831;SDS011;52593;42.648;23.332;2023-04-09T05:49:10;28.50;;;11.63;;
65831;SDS011;52593;42.648;23.332;2023-04-09T05:51:35;29.63;;;11.43;;
65831;SDS011;52593;42.648;23.332;2023-04-09T05:54:01;28.37;;;11.27;;
65831;SDS011;52593;42.648;23.332;2023-04-09T05:56:27;29.13;;;11.98;;
65831;SDS011;52593;42.648;23.332;2023-04-09T05:58:52;28.57;;;11.37;;
65831;SDS011;52593;42.648;23.332;2023-04-09T06:01:18;25.17;;;10.32;;
65831;SDS011;52593;42.648;23.332;2023-04-09T06:03:44;28.43;;;11.70;;
65831;SDS011;52593;42.648;23.332;2023-04-09T06:06:09;26.73;;;10.37;;
65831;SDS011;52593;42.648;23.332;2023-04-09T06:08:34;23.30;;;9.50;;
65831;SDS011;52593;42.648;23.332;2023-04-09T06:11:00;24.03;;;10.00;;
65831;SDS011;52593;42.648;23.332;2023-04-09T06:13:25;24.23;;;9.83;;
65831;SDS011;52593;42.648;23.332;2023-04-09T06:15:51;24.00;;;9.83;;
65831;SDS011;52593;42.648;23.332;2023-04-09T06:18:16;26.40;;;9.95;;
65831;SDS011;52593;42.648;23.332;2023-04-09T06:20:42;22.50;;;8.97;;
65831;SDS011;52593;42.648;23.332;2023-04-09T06:23:07;22.57;;;9.13;;
65831;SDS011;52593;42.648;23.332;2023-04-09T06:25:34;21.92;;;8.85;;
65831;SDS011;52593;42.648;23.332;2023-04-09T06:28:00;22.63;;;9.30;;
65831;SDS011;52593;42.648;23.332;2023-04-09T06:30:25;23.02;;;9.02;;
65831;SDS011;52593;42.648;23.332;2023-04-09T06:32:51;20.17;;;8.20;;
65831;SDS011;52593;42.648;23.332;2023-04-09T06:35:16;21.23;;;8.57;;
65831;SDS011;52593;42.648;23.332;2023-04-09T06:37:42;18.93;;;8.03;;
65831;SDS011;52593;42.648;23.332;2023-04-09T06:40:07;18.57;;;8.47;;
65831;SDS011;52593;42.648;23.332;2023-04-09T06:42:33;20.65;;;8.32;;
65831;SDS011;52593;42.648;23.332;2023-04-09T06:44:58;17.93;;;7.90;;
65831;SDS011;52593;42.648;23.332;2023-04-09T06:47:23;16.50;;;7.40;;
65831;SDS011;52593;42.648;23.332;2023-04-09T06:49:49;20.50;;;8.68;;
65831;SDS011;52593;42.648;23.332;2023-04-09T06:52:15;20.23;;;8.77;;
65831;SDS011;52593;42.648;23.332;2023-04-09T06:54:40;21.03;;;8.67;;
65831;SDS011;52593;42.648;23.332;2023-04-09T06:57:06;21.65;;;9.23;;
65831;SDS011;52593;42.648;23.332;2023-04-09T06:59:32;18.55;;;8.00;;
65831;SDS011;52593;42.648;23.332;2023-04-09T07:01:58;19.27;;;8.37;;
65831;SDS011;52593;42.648;23.332;2023-04-09T07:04:23;20.65;;;8.23;;
65831;SDS011;52593;42.648;23.332;2023-04-09T07:06:49;18.23;;;7.77;;
65831;SDS011;52593;42.648;23.332;2023-04-09T07:09:16;16.63;;;6.97;;
65831;SDS011;52593;42.648;23.332;2023-04-09T07:11:42;16.05;;;6.75;;
65831;SDS011;52593;42.648;23.332;2023-04-09T07:14:07;16.33;;;7.20;;
65831;SDS011;52593;42.648;23.332;2023-04-09T07:16:33;16.37;;;7.60;;
65831;SDS011;52593;42.648;23.332;2023-04-09T07:18:58;16.30;;;7.03;;
65831;SDS011;52593;42.648;23.332;2023-04-09T07:21:24;15.18;;;6.85;;
65831;SDS011;52593;42.648;23.332;2023-04-09T07:23:52;15.25;;;7.38;;
65831;SDS011;52593;42.648;23.332;2023-04-09T07:26:17;15.83;;;7.37;;
65831;SDS011;52593;42.648;23.332;2023-04-09T07:28:43;14.80;;;6.70;;
65831;SDS011;52593;42.648;23.332;2023-04-09T07:31:08;16.20;;;7.20;;
65831;SDS011;52593;42.648;23.332;2023-04-09T07:33:34;15.03;;;6.97;;
65831;SDS011;52593;42.648;23.332;2023-04-09T07:36:00;14.30;;;6.40;;
65831;SDS011;52593;42.648;23.332;2023-04-09T07:38:26;14.30;;;6.67;;
65831;SDS011;52593;42.648;23.332;2023-04-09T07:40:53;13.70;;;6.78;;
65831;SDS011;52593;42.648;23.332;2023-04-09T07:43:18;13.63;;;6.37;;
65831;SDS011;52593;42.648;23.332;2023-04-09T07:45:43;14.07;;;6.90;;
65831;SDS011;52593;42.648;23.332;2023-04-09T07:48:09;14.37;;;6.77;;
65831;SDS011;52593;42.648;23.332;2023-04-09T07:50:34;15.07;;;7.10;;
65831;SDS011;52593;42.648;23.332;2023-04-09T07:53:00;16.27;;;7.30;;
65831;SDS011;52593;42.648;23.332;2023-04-09T07:55:25;17.37;;;6.97;;
65831;SDS011;52593;42.648;23.332;2023-04-09T07:57:52;16.88;;;6.90;;
65831;SDS011;52593;42.648;23.332;2023-04-09T08:00:18;14.80;;;6.95;;
65831;SDS011;52593;42.648;23.332;2023-04-09T08:02:44;16.70;;;7.57;;
65831;SDS011;52593;42.648;23.332;2023-04-09T08:05:09;14.80;;;6.93;;
65831;SDS011;52593;42.648;23.332;2023-04-09T08:07:35;17.63;;;7.33;;
65831;SDS011;52593;42.648;23.332;2023-04-09T08:10:00;15.00;;;6.20;;
65831;SDS011;52593;42.648;23.332;2023-04-09T08:12:26;16.23;;;7.10;;
65831;SDS011;52593;42.648;23.332;2023-04-09T08:14:51;15.20;;;6.97;;
65831;SDS011;52593;42.648;23.332;2023-04-09T08:17:17;16.63;;;7.53;;
65831;SDS011;52593;42.648;23.332;2023-04-09T08:19:42;17.33;;;7.30;;
65831;SDS011;52593;42.648;23.332;2023-04-09T08:22:07;16.83;;;7.10;;
65831;SDS011;52593;42.648;23.332;2023-04-09T08:24:33;15.20;;;6.53;;
65831;SDS011;52593;42.648;23.332;2023-04-09T08:26:59;16.55;;;7.72;;
65831;SDS011;52593;42.648;23.332;2023-04-09T08:29:25;15.40;;;6.83;;
65831;SDS011;52593;42.648;23.332;2023-04-09T08:31:51;19.50;;;7.35;;
65831;SDS011;52593;42.648;23.332;2023-04-09T08:34:16;15.17;;;6.77;;
65831;SDS011;52593;42.648;23.332;2023-04-09T08:36:45;14.40;;;6.78;;
65831;SDS011;52593;42.648;23.332;2023-04-09T08:39:11;17.05;;;7.50;;
65831;SDS011;52593;42.648;23.332;2023-04-09T08:41:37;17.20;;;7.27;;
65831;SDS011;52593;42.648;23.332;2023-04-09T08:44:09;15.93;;;7.15;;
65831;SDS011;52593;42.648;23.332;2023-04-09T08:46:35;17.57;;;7.20;;
65831;SDS011;52593;42.648;23.332;2023-04-09T08:49:01;17.27;;;7.57;;
65831;SDS011;52593;42.648;23.332;2023-04-09T08:51:26;18.30;;;7.57;;
65831;SDS011;52593;42.648;23.332;2023-04-09T08:53:59;17.48;;;7.45;;
65831;SDS011;52593;42.648;23.332;2023-04-09T08:56:26;15.02;;;6.57;;
65831;SDS011;52593;42.648;23.332;2023-04-09T08:58:51;18.10;;;7.80;;
65831;SDS011;52593;42.648;23.332;2023-04-09T09:06:37;17.38;;;7.70;;
65831;SDS011;52593;42.648;23.332;2023-04-09T09:09:06;18.33;;;7.47;;
65831;SDS011;52593;42.648;23.332;2023-04-09T09:11:32;17.55;;;7.35;;
65831;SDS011;52593;42.648;23.332;2023-04-09T09:14:06;17.77;;;7.33;;
65831;SDS011;52593;42.648;23.332;2023-04-09T09:16:33;15.60;;;7.38;;
65831;SDS011;52593;42.648;23.332;2023-04-09T09:19:03;16.52;;;7.43;;
65831;SDS011;52593;42.648;23.332;2023-04-09T09:21:29;20.27;;;8.27;;
65831;SDS011;52593;42.648;23.332;2023-04-09T09:23:55;17.03;;;7.77;;
65831;SDS011;52593;42.648;23.332;2023-04-09T09:26:23;16.20;;;7.53;;
65831;SDS011;52593;42.648;23.332;2023-04-09T09:28:50;21.27;;;9.93;;
65831;SDS011;52593;42.648;23.332;2023-04-09T09:31:17;18.60;;;8.70;;
65831;SDS011;52593;42.648;23.332;2023-04-09T09:33:43;20.67;;;9.13;;
65831;SDS011;52593;42.648;23.332;2023-04-09T09:36:10;21.40;;;9.65;;
65831;SDS011;52593;42.648;23.332;2023-04-09T09:38:52;20.60;;;9.38;;
65831;SDS011;52593;42.648;23.332;2023-04-09T09:41:19;14.93;;;6.97;;
65831;SDS011;52593;42.648;23.332;2023-04-09T09:43:45;22.92;;;10.07;;
65831;SDS011;52593;42.648;23.332;2023-04-09T09:46:14;21.33;;;9.17;;
65831;SDS011;52593;42.648;23.332;2023-04-09T09:48:40;20.38;;;9.32;;
65831;SDS011;52593;42.648;23.332;2023-04-09T09:51:10;23.70;;;9.73;;
65831;SDS011;52593;42.648;23.332;2023-04-09T09:53:37;32.47;;;14.05;;
65831;SDS011;52593;42.648;23.332;2023-04-09T09:56:04;16.15;;;7.65;;
65831;SDS011;52593;42.648;23.332;2023-04-09T09:58:40;18.07;;;9.40;;
65831;SDS011;52593;42.648;23.332;2023-04-09T10:01:11;18.45;;;8.65;;
65831;SDS011;52593;42.648;23.332;2023-04-09T10:03:38;18.90;;;8.77;;
65831;SDS011;52593;42.648;23.332;2023-04-09T10:06:06;12.68;;;6.45;;
65831;SDS011;52593;42.648;23.332;2023-04-09T10:08:33;16.88;;;7.63;;
65831;SDS011;52593;42.648;23.332;2023-04-09T10:11:02;23.13;;;8.97;;
65831;SDS011;52593;42.648;23.332;2023-04-09T10:13:34;21.42;;;8.75;;
65831;SDS011;52593;42.648;23.332;2023-04-09T10:16:03;24.58;;;9.07;;
65831;SDS011;52593;42.648;23.332;2023-04-09T10:18:29;28.10;;;11.10;;
65831;SDS011;52593;42.648;23.332;2023-04-09T10:20:58;14.35;;;6.68;;
65831;SDS011;52593;42.648;23.332;2023-04-09T10:23:38;12.17;;;6.40;;
65831;SDS011;52593;42.648;23.332;2023-04-09T10:26:06;11.27;;;5.68;;
65831;SDS011;52593;42.648;23.332;2023-04-09T10:28:32;16.48;;;8.02;;
65831;SDS011;52593;42.648;23.332;2023-04-09T10:30:58;15.82;;;7.35;;
65831;SDS011;52593;42.648;23.332;2023-04-09T10:33:25;19.40;;;8.73;;
65831;SDS011;52593;42.648;23.332;2023-04-09T10:35:52;16.00;;;6.85;;
65831;SDS011;52593;42.648;23.332;2023-04-09T10:38:32;14.88;;;7.47;;
65831;SDS011;52593;42.648;23.332;2023-04-09T10:41:05;13.10;;;6.80;;
65831;SDS011;52593;42.648;23.332;2023-04-09T10:43:45;16.00;;;8.00;;
65831;SDS011;52593;42.648;23.332;2023-04-09T10:46:33;17.97;;;8.03;;
65831;SDS011;52593;42.648;23.332;2023-04-09T10:51:37;10.73;;;5.47;;
65831;SDS011;52593;42.648;23.332;2023-04-09T10:54:03;11.20;;;5.88;;
65831;SDS011;52593;42.648;23.332;2023-04-09T10:59:33;14.40;;;6.97;;
65831;SDS011;52593;42.648;23.332;2023-04-09T11:02:00;13.60;;;7.13;;
65831;SDS011;52593;42.648;23.332;2023-04-09T11:04:50;11.93;;;6.60;;
65831;SDS011;52593;42.648;23.332;2023-04-09T11:07:17;10.70;;;5.97;;
65831;SDS011;52593;42.648;23.332;2023-04-09T11:09:46;11.20;;;5.93;;
65831;SDS011;52593;42.648;23.332;2023-04-09T11:12:11;14.75;;;7.28;;
65831;SDS011;52593;42.648;23.332;2023-04-09T11:14:37;15.50;;;7.87;;
65831;SDS011;52593;42.648;23.332;2023-04-09T11:17:02;11.73;;;6.17;;
65831;SDS011;52593;42.648;23.332;2023-04-09T11:19:28;11.68;;;6.50;;
65831;SDS011;52593;42.648;23.332;2023-04-09T11:21:53;11.83;;;6.43;;
65831;SDS011;52593;42.648;23.332;2023-04-09T11:24:20;13.07;;;6.68;;
65831;SDS011;52593;42.648;23.332;2023-04-09T11:26:46;12.50;;;6.53;;
65831;SDS011;52593;42.648;23.332;2023-04-09T11:29:13;13.13;;;6.68;;
65831;SDS011;52593;42.648;23.332;2023-04-09T11:31:41;10.85;;;5.50;;
65831;SDS011;52593;42.648;23.332;2023-04-09T11:34:08;12.57;;;5.83;;
65831;SDS011;52593;42.648;23.332;2023-04-09T11:36:36;12.65;;;6.50;;
65831;SDS011;52593;42.648;23.332;2023-04-09T11:39:01;13.02;;;6.70;;
65831;SDS011;52593;42.648;23.332;2023-04-09T11:41:31;13.53;;;7.17;;
65831;SDS011;52593;42.648;23.332;2023-04-09T11:43:57;13.75;;;7.35;;
65831;SDS011;52593;42.648;23.332;2023-04-09T11:46:22;14.03;;;6.50;;
65831;SDS011;52593;42.648;23.332;2023-04-09T11:48:50;12.70;;;6.30;;
65831;SDS011;52593;42.648;23.332;2023-04-09T11:51:16;12.93;;;6.10;;
65831;SDS011;52593;42.648;23.332;2023-04-09T11:53:42;12.17;;;6.20;;
65831;SDS011;52593;42.648;23.332;2023-04-09T11:56:07;14.63;;;6.85;;
65831;SDS011;52593;42.648;23.332;2023-04-09T11:58:33;12.73;;;6.07;;
65831;SDS011;52593;42.648;23.332;2023-04-09T12:00:59;12.43;;;6.97;;
65831;SDS011;52593;42.648;23.332;2023-04-09T12:03:28;11.83;;;6.33;;
65831;SDS011;52593;42.648;23.332;2023-04-09T12:05:56;13.07;;;6.47;;
65831;SDS011;52593;42.648;23.332;2023-04-09T12:08:24;13.40;;;6.80;;
65831;SDS011;52593;42.648;23.332;2023-04-09T12:10:51;14.68;;;7.38;;
65831;SDS011;52593;42.648;23.332;2023-04-09T12:13:17;14.10;;;6.07;;
65831;SDS011;52593;42.648;23.332;2023-04-09T12:15:42;11.27;;;5.87;;
65831;SDS011;52593;42.648;23.332;2023-04-09T12:18:08;13.40;;;6.33;;
65831;SDS011;52593;42.648;23.332;2023-04-09T12:20:38;12.52;;;6.47;;
65831;SDS011;52593;42.648;23.332;2023-04-09T12:23:05;12.40;;;6.43;;
65831;SDS011;52593;42.648;23.332;2023-04-09T12:25:35;10.05;;;5.28;;
65831;SDS011;52593;42.648;23.332;2023-04-09T12:28:03;12.00;;;6.20;;
65831;SDS011;52593;42.648;23.332;2023-04-09T12:30:29;11.47;;;5.50;;
65831;SDS011;52593;42.648;23.332;2023-04-09T12:32:55;13.02;;;5.47;;
65831;SDS011;52593;42.648;23.332;2023-04-09T12:35:21;11.30;;;5.70;;
65831;SDS011;52593;42.648;23.332;2023-04-09T12:37:47;10.20;;;5.00;;
65831;SDS011;52593;42.648;23.332;2023-04-09T12:40:12;9.25;;;5.13;;
65831;SDS011;52593;42.648;23.332;2023-04-09T12:42:39;9.53;;;4.97;;
65831;SDS011;52593;42.648;23.332;2023-04-09T12:45:06;10.68;;;5.20;;
65831;SDS011;52593;42.648;23.332;2023-04-09T12:47:33;10.00;;;5.25;;
65831;SDS011;52593;42.648;23.332;2023-04-09T12:49:58;14.53;;;5.93;;
65831;SDS011;52593;42.648;23.332;2023-04-09T12:52:23;10.53;;;5.13;;
65831;SDS011;52593;42.648;23.332;2023-04-09T12:54:50;9.40;;;5.13;;
65831;SDS011;52593;42.648;23.332;2023-04-09T12:57:16;10.95;;;5.90;;
65831;SDS011;52593;42.648;23.332;2023-04-09T12:59:42;10.20;;;5.33;;
65831;SDS011;52593;42.648;23.332;2023-04-09T13:02:07;10.37;;;5.30;;
65831;SDS011;52593;42.648;23.332;2023-04-09T13:04:32;11.07;;;5.53;;
65831;SDS011;52593;42.648;23.332;2023-04-09T13:06:58;11.23;;;5.35;;
65831;SDS011;52593;42.648;23.332;2023-04-09T13:09:23;11.97;;;4.93;;
65831;SDS011;52593;42.648;23.332;2023-04-09T13:11:49;9.73;;;5.15;;
65831;SDS011;52593;42.648;23.332;2023-04-09T13:14:15;10.77;;;4.97;;
65831;SDS011;52593;42.648;23.332;2023-04-09T13:16:40;10.40;;;5.20;;
65831;SDS011;52593;42.648;23.332;2023-04-09T13:19:07;10.07;;;4.70;;
65831;SDS011;52593;42.648;23.332;2023-04-09T13:21:33;10.60;;;4.88;;
65831;SDS011;52593;42.648;23.332;2023-04-09T13:23:58;9.50;;;4.97;;
65831;SDS011;52593;42.648;23.332;2023-04-09T13:26:24;9.87;;;5.10;;
65831;SDS011;52593;42.648;23.332;2023-04-09T13:28:49;9.50;;;4.65;;
65831;SDS011;52593;42.648;23.332;2023-04-09T13:31:16;10.60;;;5.40;;
65831;SDS011;52593;42.648;23.332;2023-04-09T13:33:42;11.47;;;5.63;;
65831;SDS011;52593;42.648;23.332;2023-04-09T13:36:07;9.77;;;5.00;;
65831;SDS011;52593;42.648;23.332;2023-04-09T13:38:33;10.10;;;4.83;;
65831;SDS011;52593;42.648;23.332;2023-04-09T13:40:58;11.20;;;5.60;;
65831;SDS011;52593;42.648;23.332;2023-04-09T13:43:24;10.00;;;5.00;;
65831;SDS011;52593;42.648;23.332;2023-04-09T13:45:52;11.15;;;5.80;;
65831;SDS011;52593;42.648;23.332;2023-04-09T13:48:18;10.98;;;5.40;;
65831;SDS011;52593;42.648;23.332;2023-04-09T13:50:45;10.95;;;5.28;;
65831;SDS011;52593;42.648;23.332;2023-04-09T13:53:10;12.17;;;5.37;;
65831;SDS011;52593;42.648;23.332;2023-04-09T13:55:36;10.73;;;5.03;;
65831;SDS011;52593;42.648;23.332;2023-04-09T13:58:01;9.50;;;4.80;;
65831;SDS011;52593;42.648;23.332;2023-04-09T14:00:26;10.20;;;5.10;;
65831;SDS011;52593;42.648;23.332;2023-04-09T14:02:52;10.83;;;5.20;;
65831;SDS011;52593;42.648;23.332;2023-04-09T14:05:17;10.17;;;4.97;;
65831;SDS011;52593;42.648;23.332;2023-04-09T14:07:42;12.40;;;5.30;;
65831;SDS011;52593;42.648;23.332;2023-04-09T14:10:08;10.45;;;4.95;;
65831;SDS011;52593;42.648;23.332;2023-04-09T14:12:34;10.67;;;4.73;;
65831;SDS011;52593;42.648;23.332;2023-04-09T14:14:59;8.83;;;4.50;;
65831;SDS011;52593;42.648;23.332;2023-04-09T14:17:25;9.13;;;4.70;;
65831;SDS011;52593;42.648;23.332;2023-04-09T14:19:50;10.03;;;5.10;;
65831;SDS011;52593;42.648;23.332;2023-04-09T14:22:16;11.53;;;4.87;;
65831;SDS011;52593;42.648;23.332;2023-04-09T14:24:41;11.98;;;5.00;;
65831;SDS011;52593;42.648;23.332;2023-04-09T14:27:06;8.27;;;4.70;;
65831;SDS011;52593;42.648;23.332;2023-04-09T14:29:33;10.32;;;5.35;;
65831;SDS011;52593;42.648;23.332;2023-04-09T14:31:59;9.95;;;5.50;;
65831;SDS011;52593;42.648;23.332;2023-04-09T14:34:25;13.83;;;5.70;;